createdAt,value
2023-02-08T00:01:00.375Z,101935.81
2023-02-08T00:03:44.428Z,101939.72
2023-02-08T00:06:28.817Z,101933.41
2023-02-08T00:09:13.108Z,101807.31
2023-02-08T00:11:56.945Z,101936.34
2023-02-08T00:14:42.151Z,101946.44
2023-02-08T00:17:26.181Z,101938.19
2023-02-08T00:20:12.405Z,101938.69
2023-02-08T00:22:56.438Z,101939.47
2023-02-08T00:25:41.375Z,101944.00
2023-02-08T00:28:25.129Z,101941.16
2023-02-08T00:31:10.454Z,101936.69
2023-02-08T00:33:54.382Z,101938.44
2023-02-08T00:36:38.245Z,101938.50
2023-02-08T00:39:22.171Z,101949.88
2023-02-08T00:42:06.191Z,101942.59
2023-02-08T00:44:50.005Z,101938.31
2023-02-08T00:47:35.114Z,101949.44
2023-02-08T00:50:19.191Z,101951.28
2023-02-08T00:53:03.013Z,101941.44
2023-02-08T00:55:52.436Z,101953.34
2023-02-08T00:58:36.704Z,101962.34
2023-02-08T01:01:20.760Z,101944.09
2023-02-08T01:04:07.010Z,101954.19
2023-02-08T01:06:50.976Z,101964.59
2023-02-08T01:09:35.352Z,101948.53
2023-02-08T01:12:20.450Z,101962.16
2023-02-08T01:15:05.395Z,101920.81
2023-02-08T01:17:49.335Z,101961.88
2023-02-08T01:20:36.172Z,101902.13
2023-02-08T01:23:20.790Z,101914.31
2023-02-08T01:26:05.043Z,101976.88
2023-02-08T01:28:50.247Z,101945.16
2023-02-08T01:31:36.780Z,101971.94
2023-02-08T01:34:20.611Z,101990.78
2023-02-08T01:37:05.950Z,101979.22
2023-02-08T01:39:50.246Z,101984.13
2023-02-08T01:42:34.149Z,101972.47
2023-02-08T01:45:26.544Z,101938.63
2023-02-08T01:48:15.088Z,101983.72
2023-02-08T01:51:04.005Z,101980.69
2023-02-08T01:53:51.961Z,101969.31
2023-02-08T01:56:39.059Z,101991.91
2023-02-08T01:59:27.338Z,102002.59
2023-02-08T02:02:15.643Z,101982.34
2023-02-08T02:04:59.547Z,102012.75
2023-02-08T02:07:47.446Z,102001.66
2023-02-08T02:10:34.581Z,101974.22
2023-02-08T02:13:20.844Z,102013.19
2023-02-08T02:16:04.997Z,101981.25
2023-02-08T02:18:49.072Z,102003.59
2023-02-08T02:21:47.266Z,101949.94
2023-02-08T02:25:02.314Z,102006.78
2023-02-08T02:28:10.824Z,102024.06
2023-02-08T02:31:48.270Z,102019.16
2023-02-08T02:34:42.183Z,102021.69
2023-02-08T02:37:41.683Z,101982.88
2023-02-08T02:40:35.844Z,102026.09
2023-02-08T02:43:41.733Z,102033.03
2023-02-08T02:46:29.092Z,102025.34
2023-02-08T02:49:19.394Z,101999.41
2023-02-08T02:52:11.887Z,102011.47
2023-02-08T02:55:00.429Z,102026.63
2023-02-08T02:57:48.456Z,102036.13
2023-02-08T03:00:32.874Z,102041.06
2023-02-08T03:03:21.474Z,102034.47
2023-02-08T03:06:08.577Z,102043.13
2023-02-08T03:09:15.568Z,102046.53
2023-02-08T03:12:11.516Z,102002.00
2023-02-08T03:15:00.000Z,102044.47
2023-02-08T03:18:01.575Z,102061.25
2023-02-08T03:20:56.780Z,102058.50
2023-02-08T03:23:47.234Z,102061.97
2023-02-08T03:26:37.298Z,102063.09
2023-02-08T03:29:29.158Z,102072.06
2023-02-08T03:32:18.553Z,102063.09
2023-02-08T03:35:06.165Z,102057.91
2023-02-08T03:37:54.572Z,102060.28
2023-02-08T03:40:40.839Z,102036.28
2023-02-08T03:43:30.238Z,102061.59
2023-02-08T03:46:19.272Z,102057.16
2023-02-08T03:49:08.745Z,102033.81
2023-02-08T03:51:54.552Z,102068.31
2023-02-08T03:54:43.652Z,102084.56
2023-02-08T03:57:30.891Z,102079.91
2023-02-08T04:00:18.763Z,102085.06
2023-02-08T04:03:08.191Z,102076.56
2023-02-08T04:05:52.337Z,102080.38
2023-02-08T04:08:36.398Z,102084.19
2023-02-08T04:11:20.554Z,102080.88
2023-02-08T04:14:04.407Z,102044.19
2023-02-08T04:16:49.924Z,102090.97
2023-02-08T04:19:33.753Z,102116.53
2023-02-08T04:22:17.679Z,102083.78
2023-02-08T04:25:02.170Z,102115.22
2023-02-08T04:27:47.677Z,102120.88
2023-02-08T04:30:31.661Z,102124.03
2023-02-08T04:33:17.047Z,102131.38
2023-02-08T04:36:00.856Z,102134.59
2023-02-08T04:38:44.683Z,102138.94
2023-02-08T04:41:28.482Z,102113.50
2023-02-08T04:44:12.674Z,102181.41
2023-02-08T04:46:56.519Z,102159.94
2023-02-08T04:49:41.717Z,102162.19
2023-02-08T04:52:25.604Z,102160.78
2023-02-08T04:55:10.137Z,102161.16
2023-02-08T04:57:53.929Z,102162.78
2023-02-08T05:00:37.918Z,102156.50
2023-02-08T05:03:21.867Z,102161.69
2023-02-08T05:06:07.821Z,102176.34
2023-02-08T05:08:51.691Z,102178.41
2023-02-08T05:11:35.675Z,102174.66
2023-02-08T05:14:19.424Z,102158.91
2023-02-08T05:17:03.181Z,102172.50
2023-02-08T05:19:47.079Z,102160.69
2023-02-08T05:22:32.832Z,102161.03
2023-02-08T05:25:18.229Z,102156.69
2023-02-08T05:28:02.296Z,102092.84
2023-02-08T05:30:46.464Z,102180.53
2023-02-08T05:33:30.282Z,102184.16
2023-02-08T05:36:14.195Z,102173.34
2023-02-08T05:38:59.629Z,102178.88
2023-02-08T05:41:43.534Z,102181.16
2023-02-08T05:44:27.513Z,102192.13
2023-02-08T05:47:11.481Z,102194.59
2023-02-08T05:49:55.308Z,102191.34
2023-02-08T05:52:39.128Z,102196.22
2023-02-08T05:55:24.372Z,102200.38
2023-02-08T05:58:08.345Z,102183.78
2023-02-08T06:00:53.671Z,102213.16
2023-02-08T06:03:37.687Z,102213.06
2023-02-08T06:06:21.776Z,102120.06
2023-02-08T06:09:06.109Z,102180.09
2023-02-08T06:11:51.485Z,102180.81
2023-02-08T06:14:35.410Z,102219.97
2023-02-08T06:17:19.180Z,102227.56
2023-02-08T06:20:03.003Z,102204.72
2023-02-08T06:22:47.632Z,102257.09
2023-02-08T06:25:31.573Z,102224.38
2023-02-08T06:28:16.915Z,102255.59
2023-02-08T06:31:00.975Z,102248.94
2023-02-08T06:33:44.971Z,102251.94
2023-02-08T06:36:28.832Z,102245.81
2023-02-08T06:39:12.584Z,102240.59
2023-02-08T06:41:56.334Z,102248.19
2023-02-08T06:44:51.368Z,102231.63
2023-02-08T06:47:38.067Z,102252.28
2023-02-08T06:50:24.081Z,102255.69
2023-02-08T06:53:08.076Z,102247.06
2023-02-08T06:55:52.140Z,102250.41
2023-02-08T06:58:36.114Z,102255.94
2023-02-08T07:01:21.454Z,102263.34
2023-02-08T07:04:06.040Z,102250.41
2023-02-08T07:06:50.439Z,102251.19
2023-02-08T07:09:34.897Z,102253.84
2023-02-08T07:12:18.695Z,102257.09
2023-02-08T07:15:02.489Z,102248.69
2023-02-08T07:17:49.072Z,102231.66
2023-02-08T07:20:32.930Z,102249.41
2023-02-08T07:23:16.811Z,102263.75
2023-02-08T07:26:01.751Z,102276.88
2023-02-08T07:28:45.915Z,102265.22
2023-02-08T07:31:29.846Z,102244.59
2023-02-08T07:34:17.164Z,102254.03
2023-02-08T07:37:01.012Z,102239.22
2023-02-08T07:39:45.125Z,102248.72
2023-02-08T07:42:29.008Z,102239.81
2023-02-08T07:45:26.135Z,102252.47
2023-02-08T07:48:10.146Z,102231.22
2023-02-08T07:50:55.553Z,102216.06
2023-02-08T07:53:40.122Z,102242.59
2023-02-08T07:56:24.217Z,102241.59
2023-02-08T07:59:08.523Z,102247.16
2023-02-08T08:01:52.628Z,102261.34
2023-02-08T08:04:36.855Z,102231.25
2023-02-08T08:07:22.296Z,102220.31
2023-02-08T08:10:06.811Z,102217.34
2023-02-08T08:12:50.800Z,102217.53
2023-02-08T08:15:34.954Z,102252.28
2023-02-08T08:18:18.920Z,102265.44
2023-02-08T08:21:02.791Z,102260.81
2023-02-08T08:23:48.029Z,102256.13
2023-02-08T08:26:32.095Z,102283.00
2023-02-08T08:29:15.935Z,102258.88
2023-02-08T08:31:59.850Z,102259.19
2023-02-08T08:34:43.801Z,102271.72
2023-02-08T08:37:27.695Z,102247.34
2023-02-08T08:40:13.289Z,102255.91
2023-02-08T08:42:58.070Z,102234.22
2023-02-08T08:45:42.080Z,102243.22
2023-02-08T08:48:25.846Z,102232.81
2023-02-08T08:51:09.849Z,102247.53
2023-02-08T08:53:53.685Z,102248.88
2023-02-08T08:56:38.990Z,102247.53
2023-02-08T08:59:23.029Z,102249.84
2023-02-08T09:02:06.888Z,102263.97
2023-02-08T09:04:50.770Z,102257.09
2023-02-08T09:07:34.818Z,102269.22
2023-02-08T09:10:18.639Z,102246.19
2023-02-08T09:13:03.959Z,102261.16
2023-02-08T09:15:48.810Z,102289.94
2023-02-08T09:18:32.766Z,102230.41
2023-02-08T09:21:18.921Z,102267.63
2023-02-08T09:24:03.429Z,102251.97
2023-02-08T09:26:47.375Z,102260.03
2023-02-08T09:29:33.770Z,102246.84
2023-02-08T09:32:17.587Z,102246.09
2023-02-08T09:35:02.413Z,102245.41
2023-02-08T09:37:47.137Z,102271.69
2023-02-08T09:40:44.381Z,102247.16
2023-02-08T09:43:41.753Z,102249.50
2023-02-08T09:46:31.343Z,102226.16
2023-02-08T09:49:20.071Z,102246.19
2023-02-08T09:52:08.516Z,102253.09
2023-02-08T09:54:59.605Z,102236.84
2023-02-08T09:57:45.567Z,102253.31
2023-02-08T10:00:36.323Z,102249.06
2023-02-08T10:03:41.537Z,102255.31
2023-02-08T10:06:25.548Z,102242.78
2023-02-08T10:09:14.948Z,102240.25
2023-02-08T10:12:15.827Z,102241.78
2023-02-08T10:15:06.827Z,102256.44
2023-02-08T10:18:29.939Z,102240.38
2023-02-08T10:21:34.170Z,102217.69
2023-02-08T10:24:44.230Z,102225.78
2023-02-08T10:27:39.164Z,102270.63
2023-02-08T10:30:33.250Z,102235.41
2023-02-08T10:33:30.223Z,102247.88
2023-02-08T10:36:37.926Z,102266.31
2023-02-08T10:39:33.251Z,102247.19
2023-02-08T10:42:22.496Z,102216.78
2023-02-08T10:45:27.034Z,102196.31
2023-02-08T10:48:17.210Z,102237.47
2023-02-08T10:51:04.335Z,102225.75
2023-02-08T10:53:56.609Z,102247.78
2023-02-08T10:56:48.000Z,102247.47
2023-02-08T10:59:36.631Z,102266.41
2023-02-08T11:02:26.717Z,102259.53
2023-02-08T11:05:13.445Z,102236.34
2023-02-08T11:08:17.102Z,102218.94
2023-02-08T11:11:13.775Z,102225.78
2023-02-08T11:14:11.218Z,102247.50
2023-02-08T11:16:59.099Z,102246.38
2023-02-08T11:19:49.686Z,102230.06
2023-02-08T11:22:34.762Z,102254.53
2023-02-08T11:25:36.905Z,102243.94
2023-02-08T11:28:31.374Z,102246.28
2023-02-08T11:31:23.558Z,102255.88
2023-02-08T11:34:13.409Z,102250.88
2023-02-08T11:37:02.264Z,102247.94
2023-02-08T11:39:54.535Z,102253.50
2023-02-08T11:42:45.399Z,102265.19
2023-02-08T11:45:34.131Z,102268.22
2023-02-08T11:48:26.934Z,102268.72
2023-02-08T11:51:14.545Z,102283.97
2023-02-08T11:54:00.621Z,102289.56
2023-02-08T11:56:44.581Z,102289.88
2023-02-08T11:59:29.206Z,102284.44
2023-02-08T12:02:31.159Z,102283.09
2023-02-08T12:05:18.988Z,102282.31
2023-02-08T12:08:13.228Z,102259.44
2023-02-08T12:11:16.037Z,102272.50
2023-02-08T12:14:28.129Z,102254.22
2023-02-08T12:17:37.424Z,102257.13
2023-02-08T12:20:39.303Z,102263.28
2023-02-08T12:23:41.039Z,102231.19
2023-02-08T12:26:57.313Z,102282.84
2023-02-08T12:29:48.794Z,102268.50
2023-02-08T12:32:47.516Z,102254.06
2023-02-08T12:36:06.760Z,102280.22
2023-02-08T12:39:25.719Z,102278.56
2023-02-08T12:42:24.163Z,102292.72
2023-02-08T12:45:33.794Z,102267.56
2023-02-08T12:48:32.317Z,102271.28
2023-02-08T12:51:27.727Z,102314.28
2023-02-08T12:54:14.863Z,102301.47
2023-02-08T12:57:02.303Z,102287.16
2023-02-08T12:59:50.757Z,102300.47
2023-02-08T13:02:46.243Z,102309.97
2023-02-08T13:05:36.637Z,102291.28
2023-02-08T13:08:29.147Z,102284.41
2023-02-08T13:11:20.323Z,102304.44
2023-02-08T13:14:10.744Z,102320.72
2023-02-08T13:16:59.678Z,102321.03
2023-02-08T13:20:00.229Z,102276.63
2023-02-08T13:22:44.617Z,102310.59
2023-02-08T13:25:32.817Z,102298.56
2023-02-08T13:28:20.941Z,102303.78
2023-02-08T13:31:09.314Z,102316.22
2023-02-08T13:34:01.657Z,102304.41
2023-02-08T13:36:55.844Z,102323.81
2023-02-08T13:39:42.621Z,102324.69
2023-02-08T13:42:34.575Z,102344.31
2023-02-08T13:45:27.090Z,102317.84
2023-02-08T13:48:14.056Z,102316.06
2023-02-08T13:50:58.558Z,102322.56
2023-02-08T13:54:11.354Z,102293.75
2023-02-08T13:56:55.410Z,102310.78
2023-02-08T13:59:42.252Z,102304.69
2023-02-08T14:02:30.027Z,102308.34
2023-02-08T14:05:50.140Z,102300.59
2023-02-08T14:08:42.452Z,102311.59
2023-02-08T14:11:38.042Z,102317.50
2023-02-08T14:14:25.691Z,102316.09
2023-02-08T14:17:21.302Z,102305.69
2023-02-08T14:20:08.111Z,102270.50
2023-02-08T14:22:54.664Z,102307.03
2023-02-08T14:25:44.862Z,102317.13
2023-02-08T14:28:33.354Z,102305.16
2023-02-08T14:31:19.163Z,102333.75
2023-02-08T14:34:04.589Z,102295.88
2023-02-08T14:36:48.557Z,102331.53
2023-02-08T14:39:34.858Z,102317.91
2023-02-08T14:42:58.012Z,102333.94
2023-02-08T14:45:45.342Z,102275.59
2023-02-08T14:48:31.381Z,102321.03
2023-02-08T14:51:29.689Z,102332.59
2023-02-08T14:54:22.861Z,102345.00
2023-02-08T14:57:16.266Z,102333.66
2023-02-08T15:00:01.996Z,102358.44
2023-02-08T15:02:49.694Z,102347.47
2023-02-08T15:05:42.256Z,102376.41
2023-02-08T15:08:28.851Z,102341.28
2023-02-08T15:11:22.574Z,102369.78
2023-02-08T15:14:07.120Z,102349.47
2023-02-08T15:16:53.640Z,102381.88
2023-02-08T15:19:39.169Z,102388.44
2023-02-08T15:22:34.462Z,102379.84
2023-02-08T15:25:25.762Z,102357.16
2023-02-08T15:28:19.638Z,102398.13
2023-02-08T15:31:06.317Z,102407.97
2023-02-08T15:33:51.028Z,102407.09
2023-02-08T15:36:37.500Z,102393.59
2023-02-08T15:39:33.969Z,102423.53
2023-02-08T15:42:21.202Z,102422.97
2023-02-08T15:45:05.469Z,102428.13
2023-02-08T15:47:49.587Z,102457.31
2023-02-08T15:50:33.700Z,102422.22
2023-02-08T15:53:18.543Z,102409.63
2023-02-08T15:56:05.851Z,102435.06
2023-02-08T15:58:54.991Z,102442.03
2023-02-08T16:01:38.916Z,102435.66
2023-02-08T16:04:23.067Z,102434.69
2023-02-08T16:07:07.059Z,102444.91
2023-02-08T16:09:51.286Z,102441.13
2023-02-08T16:12:36.125Z,102450.19
2023-02-08T16:15:39.016Z,102442.38
2023-02-08T16:18:34.710Z,102410.84
2023-02-08T16:21:27.766Z,102433.09
2023-02-08T16:24:22.630Z,102452.50
2023-02-08T16:27:08.399Z,102450.47
2023-02-08T16:29:52.362Z,102468.16
2023-02-08T16:32:39.750Z,102416.56
2023-02-08T16:35:25.981Z,102457.13
2023-02-08T16:38:11.706Z,102452.97
2023-02-08T16:40:58.039Z,102457.09
2023-02-08T16:43:44.847Z,102455.25
2023-02-08T16:46:28.888Z,102444.25
2023-02-08T16:49:14.156Z,102454.56
2023-02-08T16:51:58.915Z,102442.22
2023-02-08T16:54:42.874Z,102436.03
2023-02-08T16:57:40.885Z,102432.38
2023-02-08T17:00:27.026Z,102423.75
2023-02-08T17:03:10.809Z,102435.56
2023-02-08T17:05:56.108Z,102481.09
2023-02-08T17:08:39.887Z,102476.09
2023-02-08T17:11:23.917Z,102481.53
2023-02-08T17:14:08.842Z,102440.34
2023-02-08T17:16:52.640Z,102492.44
2023-02-08T17:19:36.431Z,102471.97
2023-02-08T17:22:21.669Z,102491.53
2023-02-08T17:25:05.952Z,102501.00
2023-02-08T17:27:53.229Z,102505.03
2023-02-08T17:30:39.323Z,102490.66
2023-02-08T17:33:23.203Z,102465.94
2023-02-08T17:36:08.448Z,102510.44
2023-02-08T17:38:53.689Z,102499.41
2023-02-08T17:41:37.525Z,102507.16
2023-02-08T17:44:21.473Z,102513.81
2023-02-08T17:47:05.929Z,102498.03
2023-02-08T17:49:49.947Z,102451.06
2023-02-08T17:52:33.852Z,102512.88
2023-02-08T17:55:19.845Z,102476.06
2023-02-08T17:58:03.784Z,102505.78
2023-02-08T18:00:47.737Z,102488.56
2023-02-08T18:03:31.704Z,102505.78
2023-02-08T18:06:16.366Z,102533.28
2023-02-08T18:09:00.181Z,102512.16
2023-02-08T18:11:45.419Z,102519.50
2023-02-08T18:14:29.138Z,102470.47
2023-02-08T18:17:12.999Z,102479.94
2023-02-08T18:19:56.732Z,102541.31
2023-02-08T18:22:41.155Z,102509.34
2023-02-08T18:25:24.913Z,102515.66
2023-02-08T18:28:14.668Z,102514.81
2023-02-08T18:31:02.709Z,102531.16
2023-02-08T18:33:47.256Z,102526.63
2023-02-08T18:36:31.138Z,102526.28
2023-02-08T18:39:15.230Z,102533.84
2023-02-08T18:41:59.135Z,102527.63
2023-02-08T18:44:44.441Z,102552.94
2023-02-08T18:47:28.301Z,102544.53
2023-02-08T18:50:12.438Z,102528.47
2023-02-08T18:52:56.413Z,102532.75
2023-02-08T18:55:40.288Z,102545.19
2023-02-08T18:58:25.023Z,102539.03
2023-02-08T19:01:12.964Z,102536.47
2023-02-08T19:03:57.355Z,102526.38
2023-02-08T19:06:41.146Z,102544.28
2023-02-08T19:09:25.005Z,102520.88
2023-02-08T19:12:10.164Z,102536.72
2023-02-08T19:14:54.065Z,102522.16
2023-02-08T19:17:39.263Z,102529.63
2023-02-08T19:20:23.085Z,102529.72
2023-02-08T19:23:07.325Z,102523.09
2023-02-08T19:25:51.380Z,102528.38
2023-02-08T19:28:36.168Z,102529.31
2023-02-08T19:31:22.081Z,102528.38
2023-02-08T19:34:07.891Z,102527.44
2023-02-08T19:36:53.154Z,102527.28
2023-02-08T19:39:37.092Z,102535.31
2023-02-08T19:42:20.873Z,102537.91
2023-02-08T19:45:04.960Z,102536.81
2023-02-08T19:47:51.660Z,102504.03
2023-02-08T19:50:37.193Z,102507.84
2023-02-08T19:53:21.059Z,102518.59
2023-02-08T19:56:07.206Z,102528.19
2023-02-08T19:58:51.107Z,102514.19
2023-02-08T20:01:36.293Z,102523.44
2023-02-08T20:04:20.341Z,102490.63
2023-02-08T20:07:08.666Z,102512.38
2023-02-08T20:09:52.429Z,102545.72
2023-02-08T20:12:36.348Z,102507.84
2023-02-08T20:15:20.204Z,102526.34
2023-02-08T20:18:04.288Z,102530.25
2023-02-08T20:20:48.183Z,102529.09
2023-02-08T20:23:34.265Z,102530.56
2023-02-08T20:26:20.423Z,102531.66
2023-02-08T20:29:05.076Z,102542.69
2023-02-08T20:31:55.728Z,102498.00
2023-02-08T20:34:47.328Z,102536.59
2023-02-08T20:37:37.812Z,102532.50
2023-02-08T20:40:23.051Z,102520.59
2023-02-08T20:43:06.956Z,102500.00
2023-02-08T20:45:50.898Z,102522.59
2023-02-08T20:48:34.788Z,102516.75
2023-02-08T20:51:20.571Z,102520.66
2023-02-08T20:54:05.578Z,102518.28
2023-02-08T20:56:50.690Z,102489.63
2023-02-08T20:59:35.059Z,102526.25
2023-02-08T21:02:21.657Z,102528.00
2023-02-08T21:05:05.952Z,102527.88
2023-02-08T21:07:49.749Z,102536.97
2023-02-08T21:10:37.059Z,102481.22
2023-02-08T21:13:22.303Z,102523.94
2023-02-08T21:16:07.346Z,102499.81
2023-02-08T21:18:51.584Z,102544.59
2023-02-08T21:21:35.394Z,102529.34
2023-02-08T21:24:19.338Z,102530.41
2023-02-08T21:27:03.298Z,102493.03
2023-02-08T21:29:51.624Z,102499.94
2023-02-08T21:32:35.630Z,102534.44
2023-02-08T21:35:19.726Z,102548.34
2023-02-08T21:38:06.007Z,102540.09
2023-02-08T21:40:49.963Z,102535.50
2023-02-08T21:43:34.002Z,102493.72
2023-02-08T21:46:19.688Z,102545.03
2023-02-08T21:49:21.227Z,102517.66
2023-02-08T21:52:34.153Z,102536.66
2023-02-08T21:55:18.731Z,102542.94
2023-02-08T21:58:02.522Z,102540.63
2023-02-08T22:00:46.601Z,102552.84
2023-02-08T22:03:31.905Z,102540.63
2023-02-08T22:06:15.740Z,102530.09
2023-02-08T22:08:59.492Z,102491.94
2023-02-08T22:11:43.796Z,102557.06
2023-02-08T22:14:28.674Z,102529.88
2023-02-08T22:17:12.499Z,102539.69
2023-02-08T22:19:57.653Z,102566.75
2023-02-08T22:22:41.502Z,102513.81
2023-02-08T22:25:25.824Z,102543.25
2023-02-08T22:28:09.686Z,102544.91
2023-02-08T22:30:53.515Z,102559.66
2023-02-08T22:33:37.287Z,102534.28
2023-02-08T22:36:22.746Z,102547.94
2023-02-08T22:39:06.654Z,102523.88
2023-02-08T22:41:50.586Z,102554.94
2023-02-08T22:44:34.435Z,102537.97
2023-02-08T22:47:18.214Z,102516.25
2023-02-08T22:50:02.321Z,102529.13
2023-02-08T22:52:48.370Z,102519.03
2023-02-08T22:55:32.133Z,102534.75
2023-02-08T22:58:15.987Z,102535.94
2023-02-08T23:00:59.882Z,102528.94
2023-02-08T23:03:44.572Z,102532.91
2023-02-08T23:06:28.379Z,102523.59
2023-02-08T23:09:13.815Z,102533.84
2023-02-08T23:11:57.592Z,102516.59
2023-02-08T23:14:41.413Z,102484.06
2023-02-08T23:17:25.223Z,102519.88
2023-02-08T23:20:10.321Z,102525.19
2023-02-08T23:22:54.218Z,102466.09
2023-02-08T23:25:41.785Z,102505.59
2023-02-08T23:28:25.707Z,102480.56
2023-02-08T23:31:11.488Z,102513.25
2023-02-08T23:33:55.439Z,102518.28
2023-02-08T23:36:40.265Z,102507.13
2023-02-08T23:39:24.123Z,102523.22
2023-02-08T23:42:25.384Z,102547.00
2023-02-08T23:45:09.949Z,102519.13
2023-02-08T23:47:53.697Z,102506.75
2023-02-08T23:50:37.672Z,102522.75
2023-02-08T23:53:21.431Z,102510.66
2023-02-08T23:56:15.058Z,102520.94
2023-02-08T23:59:00.973Z,102532.00
